Center Ridge, Arkansas
Current Conditions -  °F | °C
As of 12:15 PM on Friday 28 Nov 2014 (Local Time) from KCCA Reporting Station
Clear Clear  
Wind Chill: 50°   Ceiling: Unl
Heat Index: 50°   Visibility: 9mi
Dew Point: 32°   Wind: 10mph
Humidity: 50%   Direction: 190°S
Pressure: 30.2"   Gusts: NA
Location:  35.37°N, 92.56°W
Report Text: KCCA 281815Z AUTO 19009KT 9SM CLR 10/00 A3020 RMK AO2
Loading
Personal Weather Stations






























Interactive Weather Map New forecast layout! Learn more

10-Day Weather Forecast

Advertisements
Track Severe Weather on mobile